Time;durP1;ratioP1;P1;durP2;ratioP2;P2;SDS_P1;SDS_P2;PMS_P1;PMS_P2;Temp;Humidity;BMP_temperature;BMP_pressure;BME280_temperature;BME280_humidity;BME280_pressure;Samples;Min_cycle;Max_cycle;Signal;HPM_P1;HPM_P2
2021/03/03 00:02:28;;;;;;;25.42;14.07;;;3.50;69.60;;;;;;5000138;28;20038;-63
2021/03/03 00:04:58;;;;;;;24.60;13.57;;;3.50;70.10;;;;;;5001658;28;20620;-64
2021/03/03 00:07:29;;;;;;;24.25;13.57;;;3.40;70.00;;;;;;5001145;28;20043;-63
2021/03/03 00:10:01;;;;;;;24.77;13.82;;;3.40;70.10;;;;;;5001453;28;20066;-63
2021/03/03 00:12:29;;;;;;;23.85;12.40;;;3.40;70.10;;;;;;4994920;28;20038;-64
2021/03/03 00:14:55;;;;;;;25.92;14.07;;;3.40;70.00;;;;;;5000754;28;20521;-63
2021/03/03 00:17:23;;;;;;;24.40;13.32;;;3.40;71.00;;;;;;5000427;28;20034;-63
2021/03/03 00:19:48;;;;;;;28.90;12.98;;;3.40;70.40;;;;;;5001984;28;20618;-64
2021/03/03 00:22:14;;;;;;;23.35;12.52;;;3.50;70.20;;;;;;5001394;28;20041;-63
2021/03/03 00:24:44;;;;;;;26.52;13.55;;;3.50;70.00;;;;;;5011974;28;20038;-65
2021/03/03 00:27:14;;;;;;;21.40;13.15;;;3.50;70.00;;;;;;5000611;28;20034;-63
2021/03/03 00:29:45;;;;;;;23.20;13.18;;;3.50;69.80;;;;;;4998910;28;20037;-63
2021/03/03 00:32:15;;;;;;;20.92;12.88;;;3.60;69.70;;;;;;4997377;28;20034;-64
2021/03/03 00:34:43;;;;;;;22.92;12.88;;;3.60;69.50;;;;;;4999475;28;20494;-64
2021/03/03 00:37:11;;;;;;;25.33;13.90;;;3.60;69.40;;;;;;4999771;28;20053;-63
2021/03/03 00:39:39;;;;;;;24.23;11.80;;;3.60;69.30;;;;;;5000216;28;20030;-63
2021/03/03 00:42:07;;;;;;;24.33;12.95;;;3.60;69.20;;;;;;5006591;28;20043;-63
2021/03/03 00:44:37;;;;;;;24.92;13.25;;;3.60;69.20;;;;;;4997743;28;20095;-65
2021/03/03 00:47:03;;;;;;;22.98;13.07;;;3.60;69.20;;;;;;4999732;28;20535;-63
2021/03/03 00:49:36;;;;;;;23.08;12.75;;;3.60;69.10;;;;;;4997992;28;20038;-63
2021/03/03 00:52:01;;;;;;;24.65;13.23;;;3.60;68.90;;;;;;4997855;28;20034;-63
2021/03/03 00:54:31;;;;;;;24.08;13.63;;;3.60;68.90;;;;;;4997208;28;20489;-63
2021/03/03 00:56:59;;;;;;;26.55;14.18;;;3.60;69.10;;;;;;4998416;28;20058;-63
2021/03/03 00:59:29;;;;;;;30.65;13.10;;;3.60;69.00;;;;;;5004923;28;20531;-63
2021/03/03 01:01:59;;;;;;;24.48;13.52;;;3.60;69.40;;;;;;4998935;28;20026;-63
2021/03/03 01:04:25;;;;;;;26.88;13.52;;;3.60;69.40;;;;;;5011383;28;20037;-64
2021/03/03 01:06:51;;;;;;;26.88;13.95;;;3.50;69.20;;;;;;4999542;28;20109;-63
2021/03/03 01:09:23;;;;;;;25.70;13.93;;;3.50;69.30;;;;;;5002956;28;20034;-63
2021/03/03 01:11:52;;;;;;;28.13;13.57;;;3.50;69.40;;;;;;4995915;28;20108;-64
2021/03/03 01:14:22;;;;;;;26.40;13.32;;;3.40;69.30;;;;;;4997333;28;20478;-64
2021/03/03 01:16:52;;;;;;;23.67;13.60;;;3.40;69.50;;;;;;4997886;28;20034;-63
2021/03/03 01:19:21;;;;;;;26.52;13.82;;;3.30;69.50;;;;;;4997606;28;20117;-63
2021/03/03 01:21:47;;;;;;;27.92;13.55;;;3.30;69.60;;;;;;4999606;28;20037;-64
2021/03/03 01:24:17;;;;;;;25.60;14.45;;;3.20;69.50;;;;;;4997284;28;20077;-63
2021/03/03 01:26:48;;;;;;;27.35;15.30;;;3.20;70.20;;;;;;4998815;28;20153;-64
2021/03/03 01:29:13;;;;;;;27.55;14.13;;;3.10;70.80;;;;;;4996660;28;20076;-63
2021/03/03 01:31:39;;;;;;;23.48;12.93;;;3.10;71.00;;;;;;4999247;28;20034;-63
2021/03/03 01:34:09;;;;;;;25.20;13.65;;;3.00;71.00;;;;;;4997749;28;20413;-63
2021/03/03 01:36:40;;;;;;;22.55;13.25;;;3.10;71.00;;;;;;4997214;28;20030;-63
2021/03/03 01:39:05;;;;;;;26.60;14.45;;;3.10;70.80;;;;;;4997429;28;20058;-63
2021/03/03 01:41:33;;;;;;;23.67;12.77;;;3.00;70.60;;;;;;4996123;28;20065;-63
2021/03/03 01:44:02;;;;;;;25.15;13.85;;;3.00;70.70;;;;;;4999602;28;20041;-63
2021/03/03 01:46:32;;;;;;;26.27;14.60;;;3.00;70.70;;;;;;4999150;28;20035;-63
2021/03/03 01:48:58;;;;;;;26.05;15.13;;;3.00;70.70;;;;;;5012397;28;20564;-63
2021/03/03 01:51:26;;;;;;;25.35;13.45;;;3.00;70.60;;;;;;4998592;28;20038;-64
2021/03/03 01:53:57;;;;;;;25.00;13.52;;;3.00;70.60;;;;;;4997286;28;20698;-64
2021/03/03 01:56:25;;;;;;;25.67;13.90;;;2.90;70.60;;;;;;4997100;28;20038;-63
2021/03/03 01:58:51;;;;;;;24.23;13.75;;;2.90;70.60;;;;;;4996673;28;20033;-63
2021/03/03 02:01:19;;;;;;;27.05;13.35;;;3.00;70.60;;;;;;4994512;28;20045;-63
2021/03/03 02:03:50;;;;;;;22.10;13.00;;;3.00;70.80;;;;;;4997641;28;20034;-63
2021/03/03 02:06:40;;;;;;;21.80;13.30;;;3.00;70.70;;;;;;4999039;28;20129;-63
2021/03/03 02:09:17;;;;;;;29.73;14.90;;;3.00;70.80;;;;;;4997271;28;20494;-66
2021/03/03 02:11:53;;;;;;;25.65;14.80;;;3.10;70.80;;;;;;4992403;28;20042;-66
2021/03/03 02:14:24;;;;;;;22.35;13.75;;;3.10;70.70;;;;;;4998505;28;20031;-66
2021/03/03 02:16:55;;;;;;;25.17;13.93;;;3.10;70.60;;;;;;4996582;28;20049;-65
2021/03/03 02:19:34;;;;;;;24.83;14.45;;;3.10;70.80;;;;;;4997433;28;20065;-66
2021/03/03 02:22:50;;;;;;;23.40;13.57;;;3.10;71.10;;;;;;4999164;28;20054;-66
2021/03/03 02:25:30;;;;;;;28.67;13.63;;;3.10;71.90;;;;;;4993881;28;20089;-65
2021/03/03 02:28:00;;;;;;;23.88;13.68;;;3.10;71.20;;;;;;4997420;28;20034;-66
2021/03/03 02:30:29;;;;;;;23.88;13.95;;;3.10;71.00;;;;;;4997771;28;20034;-65
2021/03/03 02:33:01;;;;;;;25.52;13.63;;;3.20;70.80;;;;;;4996944;28;20121;-66
2021/03/03 02:35:31;;;;;;;24.77;13.93;;;3.20;70.80;;;;;;4995621;28;20545;-66
2021/03/03 02:37:58;;;;;;;21.67;13.35;;;3.20;70.80;;;;;;4997185;28;20042;-65
2021/03/03 02:40:27;;;;;;;24.58;14.15;;;3.20;70.70;;;;;;4995923;28;20042;-67
2021/03/03 02:42:57;;;;;;;24.13;13.48;;;3.20;70.60;;;;;;4998684;28;20041;-66
2021/03/03 02:45:25;;;;;;;23.10;13.70;;;3.20;71.50;;;;;;4999163;28;20084;-66
2021/03/03 02:47:54;;;;;;;26.42;13.18;;;3.20;70.60;;;;;;4998438;28;20129;-65
2021/03/03 02:50:22;;;;;;;23.85;12.82;;;3.10;70.50;;;;;;4995972;28;20125;-66
2021/03/03 02:52:59;;;;;;;21.52;12.48;;;3.20;70.60;;;;;;5001561;28;20045;-64
2021/03/03 02:55:26;;;;;;;24.50;13.70;;;3.20;70.60;;;;;;5002007;28;20031;-63
2021/03/03 02:57:59;;;;;;;25.50;12.73;;;3.20;70.60;;;;;;4997572;28;20049;-63
2021/03/03 03:00:40;;;;;;;22.08;13.25;;;3.20;70.80;;;;;;5000609;28;20052;-63
2021/03/03 03:03:12;;;;;;;22.80;13.20;;;3.20;70.90;;;;;;5000686;28;20104;-64
2021/03/03 03:05:43;;;;;;;24.65;13.88;;;3.20;70.50;;;;;;5001327;28;20563;-63
2021/03/03 03:08:12;;;;;;;25.80;14.20;;;3.20;70.60;;;;;;5017274;28;20042;-63
2021/03/03 03:10:43;;;;;;;24.73;14.13;;;3.20;70.60;;;;;;5000287;28;20061;-63
2021/03/03 03:13:12;;;;;;;27.90;14.90;;;3.20;70.60;;;;;;5000184;28;20069;-63
2021/03/03 03:15:44;;;;;;;23.90;13.85;;;3.20;70.70;;;;;;5002126;28;20030;-63
2021/03/03 03:18:20;;;;;;;26.77;14.75;;;3.20;70.90;;;;;;5002291;28;20039;-63
2021/03/03 03:20:52;;;;;;;28.23;15.02;;;3.10;71.20;;;;;;5001868;28;20142;-63
2021/03/03 03:23:23;;;;;;;27.48;14.93;;;3.10;71.00;;;;;;5001425;28;20113;-63
2021/03/03 03:25:52;;;;;;;27.75;14.45;;;3.10;71.20;;;;;;4999832;28;20058;-63
2021/03/03 03:28:21;;;;;;;27.25;14.75;;;3.00;71.20;;;;;;4999375;28;20038;-63
2021/03/03 03:30:50;;;;;;;24.02;14.50;;;3.00;71.30;;;;;;4999829;28;20129;-63
2021/03/03 03:33:20;;;;;;;23.45;13.48;;;3.00;71.30;;;;;;5015255;28;20037;-63
2021/03/03 03:35:46;;;;;;;25.70;13.98;;;3.00;71.40;;;;;;5002189;28;20030;-63
2021/03/03 03:38:15;;;;;;;25.17;12.95;;;3.00;71.30;;;;;;5000934;28;20072;-63
2021/03/03 03:40:43;;;;;;;27.08;13.57;;;3.00;71.20;;;;;;5014502;28;20581;-63
2021/03/03 03:43:13;;;;;;;26.30;14.20;;;3.10;71.20;;;;;;5001721;28;20033;-64
2021/03/03 03:45:43;;;;;;;23.45;13.52;;;3.10;71.20;;;;;;5000220;28;20034;-63
2021/03/03 03:48:15;;;;;;;24.13;12.05;;;3.10;71.20;;;;;;4999774;28;20042;-63
2021/03/03 03:50:43;;;;;;;23.60;13.43;;;3.10;71.20;;;;;;4999698;28;20046;-63
2021/03/03 03:53:11;;;;;;;24.55;13.52;;;3.10;71.00;;;;;;4998363;28;20575;-62
2021/03/03 03:55:39;;;;;;;27.73;14.38;;;3.10;71.20;;;;;;4999871;28;20430;-63
2021/03/03 03:58:08;;;;;;;22.08;13.45;;;3.20;71.20;;;;;;4999255;28;20034;-63
2021/03/03 04:00:36;;;;;;;25.52;13.90;;;3.20;71.10;;;;;;5006141;28;20528;-63
2021/03/03 04:03:01;;;;;;;26.17;14.35;;;3.10;71.00;;;;;;5000017;28;20035;-63
2021/03/03 04:05:31;;;;;;;25.45;14.60;;;3.10;71.00;;;;;;5000273;28;22765;-63
2021/03/03 04:08:02;;;;;;;25.17;14.00;;;3.10;71.10;;;;;;4998579;28;20046;-63
2021/03/03 04:10:34;;;;;;;23.55;13.48;;;3.10;71.10;;;;;;4996016;28;20083;-63
2021/03/03 04:13:05;;;;;;;25.15;14.02;;;3.10;71.20;;;;;;4999509;28;20125;-63
2021/03/03 04:15:30;;;;;;;25.85;14.80;;;3.10;71.30;;;;;;5002076;28;20034;-63
2021/03/03 04:17:58;;;;;;;31.80;14.82;;;3.10;71.20;;;;;;4998323;28;20030;-63
2021/03/03 04:20:28;;;;;;;26.52;15.68;;;3.10;71.20;;;;;;5000617;28;20026;-63
2021/03/03 04:22:59;;;;;;;30.50;15.88;;;3.10;71.50;;;;;;5001587;28;20030;-63
2021/03/03 04:25:29;;;;;;;31.05;15.52;;;3.10;71.50;;;;;;5000670;28;20457;-62
2021/03/03 04:27:54;;;;;;;37.80;18.08;;;3.20;71.70;;;;;;4998995;28;20498;-63
2021/03/03 04:30:27;;;;;;;59.63;24.92;;;3.10;71.30;;;;;;4997382;28;20042;-63
2021/03/03 04:32:55;;;;;;;80.60;30.65;;;3.20;71.50;;;;;;4998599;28;20041;-63
2021/03/03 04:35:23;;;;;;;80.18;31.08;;;3.20;71.30;;;;;;5002235;28;20036;-63
2021/03/03 04:37:55;;;;;;;62.25;25.33;;;3.20;71.50;;;;;;4995785;28;20045;-63
2021/03/03 04:40:26;;;;;;;53.38;21.98;;;3.20;71.40;;;;;;4998712;28;20042;-63
2021/03/03 04:42:54;;;;;;;41.03;19.25;;;3.20;71.30;;;;;;4996949;28;20041;-63
2021/03/03 04:45:27;;;;;;;32.15;17.05;;;3.20;71.10;;;;;;4997406;28;20129;-63
2021/03/03 04:47:54;;;;;;;32.15;16.88;;;3.20;71.00;;;;;;4998392;28;20034;-63
2021/03/03 04:50:24;;;;;;;32.85;16.52;;;3.20;70.90;;;;;;4995201;28;20509;-63
2021/03/03 04:52:50;;;;;;;29.90;15.68;;;3.20;72.00;;;;;;4999527;28;20096;-63
2021/03/03 04:55:20;;;;;;;32.92;16.45;;;3.20;71.20;;;;;;4997582;28;20415;-63
2021/03/03 04:57:48;;;;;;;25.20;14.65;;;3.20;71.30;;;;;;4997694;28;20604;-63
2021/03/03 05:00:18;;;;;;;31.55;15.57;;;3.20;71.30;;;;;;4998004;28;20038;-63
2021/03/03 05:02:46;;;;;;;27.40;15.40;;;3.20;71.40;;;;;;4995909;28;20042;-63
2021/03/03 05:05:15;;;;;;;30.30;15.55;;;3.10;71.60;;;;;;4997984;28;20153;-64
2021/03/03 05:07:45;;;;;;;35.42;17.75;;;3.10;71.70;;;;;;4998819;28;20045;-64
2021/03/03 05:10:19;;;;;;;35.15;17.80;;;3.10;71.80;;;;;;4997479;28;20502;-63
2021/03/03 05:12:49;;;;;;;33.67;17.50;;;3.00;71.70;;;;;;5000951;28;20421;-64
2021/03/03 05:15:18;;;;;;;37.65;19.77;;;3.00;71.70;;;;;;4998288;28;20037;-63
2021/03/03 05:17:51;;;;;;;43.00;21.25;;;3.00;71.50;;;;;;5000548;28;20037;-66
2021/03/03 05:20:21;;;;;;;41.45;19.17;;;3.00;71.50;;;;;;4994750;28;20405;-65
2021/03/03 05:22:50;;;;;;;33.50;18.10;;;3.00;71.50;;;;;;4998001;28;21731;-66
2021/03/03 05:25:21;;;;;;;40.50;19.92;;;2.90;71.40;;;;;;4999459;28;20083;-65
2021/03/03 05:27:53;;;;;;;40.28;19.55;;;2.90;71.30;;;;;;5004508;28;20038;-65
2021/03/03 05:30:22;;;;;;;35.53;20.48;;;2.90;71.40;;;;;;4998297;28;20034;-65
2021/03/03 05:32:52;;;;;;;39.38;21.05;;;2.90;71.30;;;;;;4999354;28;20034;-65
2021/03/03 05:35:25;;;;;;;37.25;19.48;;;2.90;71.40;;;;;;4997357;28;20406;-65
2021/03/03 05:37:53;;;;;;;36.65;19.50;;;2.90;71.50;;;;;;4999747;28;20038;-66
2021/03/03 05:40:26;;;;;;;35.15;19.00;;;2.90;71.50;;;;;;4998121;28;20054;-66
2021/03/03 05:42:53;;;;;;;39.30;20.55;;;2.90;71.60;;;;;;4997169;28;20439;-67
2021/03/03 05:45:24;;;;;;;39.75;20.63;;;2.90;71.50;;;;;;5005449;28;20038;-66
2021/03/03 05:47:53;;;;;;;35.60;18.48;;;2.90;71.50;;;;;;4999752;28;20042;-66
2021/03/03 05:50:25;;;;;;;31.90;17.00;;;2.80;71.40;;;;;;4998867;28;20034;-66
2021/03/03 05:52:52;;;;;;;32.65;17.00;;;2.90;71.40;;;;;;4999483;28;20046;-65
2021/03/03 05:55:22;;;;;;;29.45;16.58;;;2.90;71.70;;;;;;4999533;28;20030;-66
2021/03/03 05:57:48;;;;;;;32.90;17.15;;;2.90;71.90;;;;;;5011537;28;20054;-67
2021/03/03 06:00:20;;;;;;;30.50;16.27;;;2.90;71.70;;;;;;5004934;28;20050;-66
2021/03/03 06:02:48;;;;;;;28.02;15.50;;;2.90;71.90;;;;;;4998610;28;20037;-66
2021/03/03 06:05:19;;;;;;;28.23;16.77;;;2.90;71.90;;;;;;4998277;28;20037;-66
2021/03/03 06:07:50;;;;;;;29.65;16.10;;;2.90;72.00;;;;;;4999364;28;20034;-66
2021/03/03 06:10:16;;;;;;;27.98;15.95;;;2.90;72.00;;;;;;4998531;28;20029;-66
2021/03/03 06:12:44;;;;;;;31.98;16.02;;;2.90;72.10;;;;;;4996609;28;20038;-66
2021/03/03 06:15:13;;;;;;;29.17;17.10;;;2.90;72.00;;;;;;4998710;28;20046;-65
2021/03/03 06:17:39;;;;;;;31.58;16.48;;;2.90;72.40;;;;;;4998792;28;20671;-65
2021/03/03 06:20:10;;;;;;;27.20;16.02;;;2.90;72.30;;;;;;4999557;28;20038;-65
2021/03/03 06:22:39;;;;;;;28.25;16.48;;;2.80;72.30;;;;;;4997177;28;20022;-66
2021/03/03 06:25:23;;;;;;;30.10;16.70;;;2.80;72.30;;;;;;4998832;28;20049;-66
2021/03/03 06:27:54;;;;;;;34.25;16.70;;;2.80;72.80;;;;;;4998949;28;20061;-66
2021/03/03 06:30:21;;;;;;;33.83;16.50;;;2.80;72.40;;;;;;5004274;28;20030;-66
2021/03/03 06:32:56;;;;;;;35.88;17.27;;;2.80;72.40;;;;;;4997577;28;20561;-65
2021/03/03 06:35:43;;;;;;;33.58;18.08;;;2.80;73.40;;;;;;4998745;28;20069;-65
2021/03/03 06:38:13;;;;;;;35.40;18.52;;;2.80;72.90;;;;;;4996100;28;20433;-66
2021/03/03 06:41:10;;;;;;;42.17;19.70;;;2.80;72.60;;;;;;4998041;28;20042;-66
2021/03/03 06:43:38;;;;;;;35.60;18.08;;;2.80;73.40;;;;;;4999357;28;20179;-66
2021/03/03 06:46:19;;;;;;;39.90;18.73;;;2.80;72.70;;;;;;4998589;28;20034;-65
2021/03/03 06:48:49;;;;;;;32.78;17.20;;;2.80;73.30;;;;;;4997310;28;20452;-66
2021/03/03 06:51:35;;;;;;;34.60;17.88;;;2.90;72.90;;;;;;5005078;28;20038;-65
2021/03/03 06:54:04;;;;;;;37.83;18.08;;;2.90;73.30;;;;;;4997141;28;20030;-67
2021/03/03 06:56:46;;;;;;;32.78;17.20;;;2.90;73.00;;;;;;5013567;28;20048;-66
2021/03/03 06:59:26;;;;;;;39.28;18.95;;;2.90;73.60;;;;;;4996933;28;20031;-66
2021/03/03 07:02:04;;;;;;;46.17;19.88;;;2.90;73.30;;;;;;4998346;28;20037;-66
2021/03/03 07:04:36;;;;;;;45.28;20.10;;;3.00;73.40;;;;;;5003784;28;20401;-65
2021/03/03 07:07:16;;;;;;;40.65;19.00;;;3.00;73.40;;;;;;4998803;28;20030;-66
2021/03/03 07:09:45;;;;;;;40.00;19.40;;;3.00;73.70;;;;;;5012271;28;20117;-66
2021/03/03 07:12:23;;;;;;;41.28;19.70;;;3.00;73.30;;;;;;4997567;28;20038;-66
2021/03/03 07:15:10;;;;;;;45.22;18.85;;;3.10;73.40;;;;;;4998295;28;20030;-66
2021/03/03 07:17:46;;;;;;;41.28;18.25;;;3.10;73.80;;;;;;4998527;28;20405;-65
2021/03/03 07:20:14;;;;;;;36.35;18.23;;;3.20;73.60;;;;;;4998897;28;20058;-66
2021/03/03 07:22:48;;;;;;;39.20;18.80;;;3.20;73.40;;;;;;4998192;28;20037;-66
2021/03/03 07:25:20;;;;;;;42.05;19.08;;;3.30;73.60;;;;;;4997231;28;20037;-65
2021/03/03 07:27:49;;;;;;;35.97;18.10;;;3.30;73.60;;;;;;4997266;28;20473;-65
2021/03/03 07:30:22;;;;;;;36.30;18.20;;;3.40;73.80;;;;;;4997023;28;20029;-66
2021/03/03 07:32:48;;;;;;;35.75;19.67;;;3.40;73.80;;;;;;4996443;28;20050;-66
2021/03/03 07:35:18;;;;;;;32.47;17.48;;;3.50;74.10;;;;;;4998253;28;20081;-65
2021/03/03 07:37:53;;;;;;;34.75;17.95;;;3.50;74.10;;;;;;4999008;28;20041;-66
2021/03/03 07:40:25;;;;;;;36.75;17.35;;;3.60;74.30;;;;;;5001378;28;20469;-65
2021/03/03 07:43:00;;;;;;;37.45;18.73;;;3.60;74.10;;;;;;5000527;28;20061;-65
2021/03/03 07:45:40;;;;;;;35.58;17.80;;;3.60;74.30;;;;;;5001558;28;20052;-65
2021/03/03 07:48:11;;;;;;;28.48;16.45;;;3.70;74.60;;;;;;5001508;28;20513;-67
2021/03/03 07:50:38;;;;;;;34.95;16.88;;;3.70;74.30;;;;;;5001546;28;20128;-66
2021/03/03 07:53:08;;;;;;;35.30;18.08;;;3.80;74.30;;;;;;5001042;28;20053;-66
2021/03/03 07:55:39;;;;;;;41.42;18.25;;;3.80;74.30;;;;;;5001617;28;20041;-66
2021/03/03 07:58:13;;;;;;;36.53;18.13;;;3.90;74.40;;;;;;4999111;28;20041;-66
2021/03/03 08:00:43;;;;;;;36.00;18.15;;;4.00;74.40;;;;;;5000477;28;20117;-65
2021/03/03 08:03:09;;;;;;;36.90;19.13;;;4.10;74.10;;;;;;4992699;28;20069;-66
2021/03/03 08:05:42;;;;;;;34.58;17.90;;;4.10;74.10;;;;;;5000018;28;20059;-66
2021/03/03 08:08:16;;;;;;;32.83;17.73;;;4.20;74.20;;;;;;5000824;28;20144;-65
2021/03/03 08:10:44;;;;;;;40.25;17.95;;;4.30;74.30;;;;;;4996613;28;20464;-66
2021/03/03 08:13:16;;;;;;;36.85;19.08;;;4.40;74.00;;;;;;5001298;28;20034;-66
2021/03/03 08:15:48;;;;;;;34.60;18.50;;;4.50;74.10;;;;;;5001954;28;20042;-66
2021/03/03 08:18:16;;;;;;;32.10;17.25;;;4.60;73.90;;;;;;5000266;28;20034;-66
2021/03/03 08:20:46;;;;;;;28.83;15.88;;;4.60;73.60;;;;;;4999833;28;20038;-66
2021/03/03 08:23:32;;;;;;;29.23;16.30;;;4.70;73.60;;;;;;5001401;28;20120;-66
2021/03/03 08:26:12;;;;;;;30.92;16.42;;;4.80;73.90;;;;;;5001227;28;20084;-66
2021/03/03 08:29:16;;;;;;;30.95;16.45;;;4.80;73.40;;;;;;4998617;28;20092;-66
2021/03/03 08:31:42;;;;;;;28.38;15.90;;;5.00;73.80;;;;;;5000854;28;20038;-66
2021/03/03 08:34:09;;;;;;;30.30;16.77;;;5.10;73.30;;;;;;5001126;28;20129;-65
2021/03/03 08:36:39;;;;;;;38.20;17.55;;;5.10;73.20;;;;;;5000431;28;20034;-66
2021/03/03 08:39:10;;;;;;;32.33;16.95;;;5.20;73.20;;;;;;4997690;28;20041;-66
2021/03/03 08:41:37;;;;;;;30.17;17.63;;;5.30;73.30;;;;;;5000698;28;20030;-66
2021/03/03 08:44:11;;;;;;;28.63;16.48;;;5.40;73.20;;;;;;4998943;28;20458;-66
2021/03/03 08:46:48;;;;;;;30.92;15.82;;;5.50;73.30;;;;;;5000412;28;20025;-66
2021/03/03 08:49:25;;;;;;;28.42;14.57;;;5.60;73.30;;;;;;4998831;28;20493;-66
2021/03/03 08:52:09;;;;;;;27.67;15.75;;;5.60;72.90;;;;;;5001281;28;20042;-66
2021/03/03 08:54:45;;;;;;;33.33;17.00;;;5.80;73.00;;;;;;4997998;28;20026;-66
2021/03/03 08:57:31;;;;;;;29.33;15.77;;;5.90;72.80;;;;;;5001323;28;20041;-66
2021/03/03 08:59:57;;;;;;;33.60;16.63;;;5.90;72.90;;;;;;4999756;28;20400;-64
2021/03/03 09:02:35;;;;;;;30.60;17.42;;;6.10;72.60;;;;;;4998925;28;20036;-64
2021/03/03 09:05:09;;;;;;;39.05;18.33;;;6.20;72.70;;;;;;5000859;28;20038;-63
2021/03/03 09:07:35;;;;;;;33.50;16.40;;;6.20;72.60;;;;;;5000679;28;20030;-64
2021/03/03 09:10:19;;;;;;;35.70;17.75;;;6.30;72.40;;;;;;5000801;28;20270;-64
2021/03/03 09:12:46;;;;;;;36.45;17.13;;;6.40;72.30;;;;;;4997070;28;20046;-64
2021/03/03 09:15:16;;;;;;;32.47;17.60;;;6.60;72.10;;;;;;4999950;28;20049;-64
2021/03/03 09:17:48;;;;;;;36.65;18.45;;;6.60;72.20;;;;;;4999901;28;20042;-64
2021/03/03 09:20:23;;;;;;;50.78;22.80;;;6.60;72.20;;;;;;4998884;28;20618;-64
2021/03/03 09:22:51;;;;;;;41.05;19.75;;;6.80;72.30;;;;;;4999722;28;20042;-64
2021/03/03 09:25:24;;;;;;;37.65;17.83;;;6.90;72.20;;;;;;5000700;28;20030;-64
2021/03/03 09:27:53;;;;;;;33.65;16.88;;;7.00;72.10;;;;;;4999671;28;20038;-64
2021/03/03 09:30:24;;;;;;;33.83;16.40;;;7.10;71.80;;;;;;5005199;28;20030;-64
2021/03/03 09:32:54;;;;;;;34.25;16.77;;;7.20;71.50;;;;;;4997352;28;20046;-64
2021/03/03 09:35:39;;;;;;;25.48;15.73;;;7.30;71.10;;;;;;5000042;28;20034;-64
2021/03/03 09:38:13;;;;;;;32.45;15.73;;;7.40;70.80;;;;;;4999034;28;20030;-64
2021/03/03 09:40:41;;;;;;;28.63;16.27;;;7.50;70.60;;;;;;4998229;28;20033;-64
2021/03/03 09:43:13;;;;;;;30.25;16.73;;;7.60;70.40;;;;;;4998192;28;20474;-64
2021/03/03 09:45:39;;;;;;;35.05;16.38;;;7.70;70.20;;;;;;4999672;28;20040;-65
2021/03/03 09:48:10;;;;;;;27.27;16.48;;;7.70;70.00;;;;;;4998616;28;20031;-64
2021/03/03 09:50:38;;;;;;;31.33;17.38;;;7.80;69.90;;;;;;4999269;28;20514;-64
2021/03/03 09:53:06;;;;;;;29.00;17.55;;;7.90;69.80;;;;;;4999398;28;20525;-64
2021/03/03 09:55:38;;;;;;;28.90;17.92;;;8.00;69.60;;;;;;4999669;28;20557;-64
2021/03/03 09:58:06;;;;;;;31.15;18.15;;;8.10;69.30;;;;;;5012216;28;20141;-64
2021/03/03 10:00:40;;;;;;;31.63;18.20;;;8.10;69.20;;;;;;4997304;28;20436;-65
2021/03/03 10:03:11;;;;;;;35.08;17.98;;;8.20;68.90;;;;;;4999372;28;20030;-64
2021/03/03 10:05:37;;;;;;;31.95;17.63;;;8.20;68.80;;;;;;5005687;28;20402;-65
2021/03/03 10:08:11;;;;;;;33.95;18.13;;;8.30;68.80;;;;;;4999041;28;20561;-64
2021/03/03 10:10:45;;;;;;;31.83;18.25;;;8.40;68.60;;;;;;4996155;28;20037;-64
2021/03/03 10:13:25;;;;;;;28.15;18.73;;;8.50;68.50;;;;;;4998911;28;20041;-64
2021/03/03 10:15:56;;;;;;;35.42;18.65;;;8.60;68.30;;;;;;4999676;28;20509;-66
2021/03/03 10:18:22;;;;;;;33.78;18.35;;;8.60;68.20;;;;;;4998312;28;20030;-65
2021/03/03 10:20:56;;;;;;;35.35;18.35;;;8.70;68.10;;;;;;4998261;28;20041;-66
2021/03/03 10:23:31;;;;;;;28.60;18.30;;;8.80;67.80;;;;;;4997690;28;20408;-66
2021/03/03 10:25:56;;;;;;;29.08;18.45;;;8.90;67.70;;;;;;4999230;28;20030;-67
2021/03/03 10:28:28;;;;;;;31.50;18.13;;;9.00;67.70;;;;;;4996122;28;20058;-66
2021/03/03 10:31:02;;;;;;;35.50;17.98;;;9.00;67.50;;;;;;4996429;28;20032;-66
2021/03/03 10:33:37;;;;;;;32.13;17.73;;;9.10;67.40;;;;;;4997691;28;20346;-66
2021/03/03 10:36:10;;;;;;;29.00;18.08;;;9.20;67.10;;;;;;4999315;28;20119;-67
2021/03/03 10:38:48;;;;;;;31.25;17.55;;;9.30;67.10;;;;;;4995717;28;20027;-66
2021/03/03 10:41:32;;;;;;;29.02;16.77;;;9.40;66.90;;;;;;4998481;28;20042;-67
2021/03/03 10:44:05;;;;;;;28.48;17.30;;;9.50;66.70;;;;;;4998470;28;20437;-67
2021/03/03 10:46:44;;;;;;;29.42;17.00;;;9.60;66.70;;;;;;4997436;28;20038;-66
2021/03/03 10:49:12;;;;;;;26.80;17.33;;;9.60;66.60;;;;;;5004973;28;20034;-66
2021/03/03 10:51:40;;;;;;;28.08;16.63;;;9.70;66.20;;;;;;4999822;28;20057;-66
2021/03/03 10:54:09;;;;;;;27.15;17.02;;;9.80;66.10;;;;;;4997445;28;20043;-67
2021/03/03 10:56:43;;;;;;;29.00;17.20;;;9.80;66.00;;;;;;4998727;28;20092;-67
2021/03/03 10:59:28;;;;;;;32.95;17.98;;;9.90;65.90;;;;;;4995469;28;20510;-67
2021/03/03 11:01:57;;;;;;;27.48;17.63;;;10.00;65.30;;;;;;4997009;28;20050;-66
2021/03/03 11:04:45;;;;;;;27.25;16.45;;;10.00;65.70;;;;;;4998294;28;20122;-66
2021/03/03 11:07:15;;;;;;;33.58;19.45;;;10.20;65.10;;;;;;4999442;28;20068;-66
2021/03/03 11:09:40;;;;;;;33.90;17.58;;;10.20;66.20;;;;;;4996434;28;20073;-67
2021/03/03 11:12:07;;;;;;;31.48;17.25;;;10.30;65.20;;;;;;4997433;28;20042;-66
2021/03/03 11:14:38;;;;;;;29.60;17.33;;;10.40;65.00;;;;;;5001350;28;20053;-67
2021/03/03 11:17:06;;;;;;;27.52;16.67;;;10.50;64.90;;;;;;5000633;28;20054;-66
2021/03/03 11:19:34;;;;;;;32.30;17.45;;;10.50;64.40;;;;;;5002198;28;20029;-67
2021/03/03 11:22:02;;;;;;;27.50;15.85;;;10.60;65.10;;;;;;5002042;28;20166;-67
2021/03/03 11:24:35;;;;;;;31.25;15.82;;;10.70;63.80;;;;;;5002152;28;20030;-67
2021/03/03 11:27:06;;;;;;;29.25;16.23;;;10.80;63.60;;;;;;5003213;28;20038;-66
2021/03/03 11:29:32;;;;;;;28.45;16.40;;;10.90;63.40;;;;;;5000325;28;20026;-67
2021/03/03 11:31:59;;;;;;;26.08;15.82;;;10.90;63.40;;;;;;5002562;28;20581;-66
2021/03/03 11:34:29;;;;;;;28.90;16.52;;;11.00;63.20;;;;;;5001575;28;20042;-66
2021/03/03 11:36:57;;;;;;;21.63;15.23;;;11.00;62.90;;;;;;5001177;28;20066;-67
2021/03/03 11:39:27;;;;;;;25.48;15.20;;;11.00;62.90;;;;;;5001796;28;20033;-67
2021/03/03 11:41:55;;;;;;;23.52;15.50;;;11.00;62.70;;;;;;5000617;28;20046;-66
2021/03/03 11:44:21;;;;;;;29.00;15.65;;;11.00;62.60;;;;;;5000076;28;20038;-66
2021/03/03 11:46:49;;;;;;;25.92;16.35;;;11.00;62.40;;;;;;5001810;28;20039;-66
2021/03/03 11:49:14;;;;;;;27.48;15.85;;;11.00;62.00;;;;;;5000813;28;20501;-64
2021/03/03 11:51:47;;;;;;;24.13;15.38;;;11.00;62.10;;;;;;5001558;28;20053;-65
2021/03/03 11:54:17;;;;;;;26.67;15.40;;;11.00;61.90;;;;;;5002372;28;20029;-64
2021/03/03 11:56:45;;;;;;;24.63;15.95;;;11.10;62.00;;;;;;5001531;28;20636;-65
2021/03/03 11:59:11;;;;;;;28.63;17.05;;;11.10;61.90;;;;;;4998943;28;20454;-64
2021/03/03 12:01:44;;;;;;;24.58;15.70;;;11.10;61.70;;;;;;4998989;28;20030;-65
2021/03/03 12:04:12;;;;;;;29.83;17.15;;;11.10;61.60;;;;;;5001601;28;20042;-65
2021/03/03 12:06:40;;;;;;;26.33;16.02;;;11.10;61.30;;;;;;5000878;28;20029;-65
2021/03/03 12:09:10;;;;;;;30.45;17.95;;;11.10;61.40;;;;;;5000107;28;20043;-64
2021/03/03 12:11:36;;;;;;;28.77;15.75;;;11.10;61.10;;;;;;5000032;28;20035;-65
2021/03/03 12:14:03;;;;;;;25.60;16.20;;;11.10;61.20;;;;;;5001320;28;20031;-65
2021/03/03 12:16:31;;;;;;;27.02;16.77;;;11.20;60.80;;;;;;5001278;28;20537;-65
2021/03/03 12:19:02;;;;;;;29.02;17.50;;;11.20;60.60;;;;;;5001524;28;20045;-65
2021/03/03 12:21:35;;;;;;;23.05;15.00;;;11.20;60.30;;;;;;5000720;28;20030;-65
2021/03/03 12:24:07;;;;;;;23.48;15.27;;;11.20;60.20;;;;;;4998517;28;20042;-65
2021/03/03 12:26:40;;;;;;;26.92;15.75;;;11.30;60.10;;;;;;5000582;28;20116;-64
2021/03/03 12:29:05;;;;;;;24.35;15.45;;;11.30;60.00;;;;;;4999374;28;20038;-65
2021/03/03 12:31:36;;;;;;;25.50;15.18;;;11.40;60.20;;;;;;5000546;28;20030;-64
2021/03/03 12:34:02;;;;;;;25.98;15.88;;;11.40;60.00;;;;;;5000649;28;20076;-64
2021/03/03 12:36:30;;;;;;;24.85;16.08;;;11.50;60.00;;;;;;4999965;28;20035;-65
2021/03/03 12:39:00;;;;;;;27.30;15.63;;;11.50;59.80;;;;;;4999180;28;20038;-65
2021/03/03 12:41:33;;;;;;;25.15;15.82;;;11.50;59.50;;;;;;5000823;28;20033;-64
2021/03/03 12:44:03;;;;;;;23.50;14.60;;;11.60;59.50;;;;;;5000543;28;20038;-65
2021/03/03 12:46:33;;;;;;;23.73;15.13;;;11.60;59.40;;;;;;5000843;28;20433;-65
2021/03/03 12:49:02;;;;;;;21.90;14.90;;;11.70;59.40;;;;;;5000339;28;20042;-65
2021/03/03 12:51:29;;;;;;;24.40;14.45;;;11.70;59.30;;;;;;5000748;28;20111;-65
2021/03/03 12:54:02;;;;;;;22.90;15.38;;;11.80;59.10;;;;;;4998823;28;20512;-65
2021/03/03 12:56:28;;;;;;;24.02;14.73;;;11.80;59.00;;;;;;5000594;28;20030;-65